createdAt,value
2022-11-25T00:01:26.059Z,88.97
2022-11-25T00:04:11.343Z,89.43
2022-11-25T00:06:56.669Z,88.86
2022-11-25T00:09:42.169Z,89.56
2022-11-25T00:12:27.575Z,89.50
2022-11-25T00:15:13.019Z,89.36
2022-11-25T00:17:58.095Z,89.17
2022-11-25T00:20:43.570Z,89.14
2022-11-25T00:23:33.114Z,89.44
2022-11-25T00:26:19.488Z,89.48
2022-11-25T00:29:06.752Z,88.88
2022-11-25T00:31:54.138Z,88.86
2022-11-25T00:34:39.465Z,89.30
2022-11-25T00:37:26.439Z,89.54
2022-11-25T00:40:12.551Z,89.72
2022-11-25T00:43:16.336Z,89.59
2022-11-25T00:46:01.709Z,89.49
2022-11-25T00:48:46.910Z,88.89
2022-11-25T00:51:31.966Z,88.74
2022-11-25T00:54:17.492Z,87.99
2022-11-25T00:57:02.658Z,88.09
2022-11-25T00:59:49.222Z,88.59
2022-11-25T01:02:34.752Z,88.15
2022-11-25T01:05:20.209Z,88.57
2022-11-25T01:08:05.565Z,88.78
2022-11-25T01:10:58.574Z,89.05
2022-11-25T01:13:43.841Z,89.40
2022-11-25T01:16:30.003Z,88.97
2022-11-25T01:19:16.237Z,88.85
2022-11-25T01:22:01.610Z,88.39
2022-11-25T01:24:47.093Z,88.16
2022-11-25T01:27:33.270Z,87.62
2022-11-25T01:30:18.722Z,88.24
2022-11-25T01:33:03.911Z,87.31
2022-11-25T01:35:49.220Z,88.54
2022-11-25T01:38:35.364Z,88.50
2022-11-25T01:41:21.916Z,87.99
2022-11-25T01:44:12.342Z,87.88
2022-11-25T01:47:03.306Z,88.31
2022-11-25T01:50:02.422Z,87.99
2022-11-25T01:52:53.174Z,87.81
2022-11-25T01:55:42.825Z,87.62
2022-11-25T01:58:36.507Z,87.70
2022-11-25T02:01:22.460Z,87.79
2022-11-25T02:04:10.621Z,88.28
2022-11-25T02:07:03.646Z,88.03
2022-11-25T02:09:50.486Z,88.12
2022-11-25T02:12:38.697Z,88.57
2022-11-25T02:15:24.529Z,88.68
2022-11-25T02:18:10.116Z,88.97
2022-11-25T02:20:55.222Z,89.69
2022-11-25T02:23:59.040Z,90.05
2022-11-25T02:26:44.666Z,90.31
2022-11-25T02:29:30.239Z,89.78
2022-11-25T02:32:16.052Z,89.67
2022-11-25T02:35:01.156Z,89.90
2022-11-25T02:37:46.515Z,89.22
2022-11-25T02:40:36.318Z,89.60
2022-11-25T02:43:22.052Z,89.17
2022-11-25T02:46:11.073Z,89.39
2022-11-25T02:49:13.227Z,89.43
2022-11-25T02:52:00.518Z,89.09
2022-11-25T02:54:47.641Z,89.16
2022-11-25T02:57:33.748Z,89.30
2022-11-25T03:00:19.559Z,89.88
2022-11-25T03:03:05.473Z,90.23
2022-11-25T03:05:50.754Z,89.73
2022-11-25T03:08:36.821Z,89.92
2022-11-25T03:11:45.708Z,89.51
2022-11-25T03:14:32.185Z,89.68
2022-11-25T03:17:17.528Z,89.75
2022-11-25T03:20:04.738Z,89.44
2022-11-25T03:22:50.742Z,89.83
2022-11-25T03:25:36.333Z,89.41
2022-11-25T03:28:23.189Z,89.34
2022-11-25T03:31:12.163Z,88.74
2022-11-25T03:33:57.833Z,88.97
2022-11-25T03:36:43.198Z,89.10
2022-11-25T03:39:29.444Z,89.55
2022-11-25T03:42:14.837Z,90.19
2022-11-25T03:45:01.081Z,90.31
2022-11-25T03:47:46.586Z,90.48
2022-11-25T03:50:31.968Z,90.13
2022-11-25T03:53:17.319Z,90.14
2022-11-25T03:56:02.961Z,89.93
2022-11-25T03:58:48.745Z,90.18
2022-11-25T04:01:41.489Z,90.03
2022-11-25T04:04:29.393Z,89.40
2022-11-25T04:07:14.676Z,89.54
2022-11-25T04:09:59.970Z,89.86
2022-11-25T04:12:48.233Z,90.06
2022-11-25T04:15:46.519Z,89.63
2022-11-25T04:18:32.420Z,90.14
2022-11-25T04:21:18.666Z,88.98
2022-11-25T04:24:03.797Z,89.34
2022-11-25T04:26:48.999Z,88.98
2022-11-25T04:29:34.339Z,88.88
2022-11-25T04:32:22.299Z,88.73
2022-11-25T04:35:08.397Z,89.00
2022-11-25T04:37:54.595Z,89.04
2022-11-25T04:40:41.101Z,89.29
2022-11-25T04:43:36.146Z,89.49
2022-11-25T04:46:40.875Z,89.64
2022-11-25T04:49:26.403Z,90.02
2022-11-25T04:52:11.877Z,90.40
2022-11-25T04:54:57.453Z,90.53
2022-11-25T04:57:42.558Z,90.64
2022-11-25T05:00:28.785Z,91.06
2022-11-25T05:03:15.715Z,90.76
2022-11-25T05:06:06.726Z,90.66
2022-11-25T05:08:53.741Z,90.61
2022-11-25T05:11:41.551Z,90.05
2022-11-25T05:14:26.950Z,90.17
2022-11-25T05:17:18.411Z,91.01
2022-11-25T05:20:04.768Z,90.64
2022-11-25T05:22:52.313Z,89.65
2022-11-25T05:25:40.449Z,90.15
2022-11-25T05:28:43.822Z,90.26
2022-11-25T05:31:30.355Z,90.35
2022-11-25T05:34:16.073Z,90.39
2022-11-25T05:37:02.747Z,89.92
2022-11-25T05:39:49.537Z,90.69
2022-11-25T05:42:43.663Z,90.17
2022-11-25T05:45:29.114Z,89.94
2022-11-25T05:48:16.035Z,90.23
2022-11-25T05:51:03.332Z,90.53
2022-11-25T05:53:49.835Z,89.98
2022-11-25T05:56:37.698Z,89.87
2022-11-25T05:59:46.046Z,89.95
2022-11-25T06:02:40.607Z,89.55
2022-11-25T06:05:27.315Z,89.63
2022-11-25T06:08:12.436Z,89.27
2022-11-25T06:10:58.187Z,89.37
2022-11-25T06:13:44.674Z,89.54
2022-11-25T06:16:30.429Z,90.20
2022-11-25T06:19:26.502Z,91.08
2022-11-25T06:22:12.024Z,90.97
2022-11-25T06:25:03.100Z,91.90
2022-11-25T06:28:11.835Z,91.72
2022-11-25T06:30:56.278Z,91.85
2022-11-25T06:33:54.733Z,92.39
2022-11-25T06:36:40.040Z,92.31
2022-11-25T06:39:25.479Z,92.14
2022-11-25T06:42:11.228Z,91.93
2022-11-25T06:44:56.173Z,91.79
2022-11-25T06:47:41.611Z,91.68
2022-11-25T06:50:27.002Z,92.21
2022-11-25T06:53:12.027Z,92.44
2022-11-25T06:56:05.294Z,92.68
2022-11-25T06:58:51.761Z,92.19
2022-11-25T07:01:37.114Z,91.87
2022-11-25T07:04:22.174Z,92.07
2022-11-25T07:07:07.688Z,92.03
2022-11-25T07:09:52.789Z,91.74
2022-11-25T07:12:38.419Z,91.64
2022-11-25T07:15:23.655Z,92.19
2022-11-25T07:18:09.129Z,92.60
2022-11-25T07:20:54.444Z,91.99
2022-11-25T07:23:40.562Z,91.62
2022-11-25T07:26:28.896Z,91.86
2022-11-25T07:32:22.631Z,91.72
2022-11-25T07:35:08.269Z,91.61
2022-11-25T07:37:53.568Z,91.08
2022-11-25T07:40:39.221Z,90.89
2022-11-25T07:43:24.707Z,90.98
2022-11-25T07:46:13.262Z,91.50
2022-11-25T07:49:02.020Z,91.11
2022-11-25T07:51:53.680Z,91.76
2022-11-25T07:54:38.808Z,91.73
2022-11-25T07:57:24.294Z,91.25
2022-11-25T08:00:10.320Z,91.59
2022-11-25T08:02:59.834Z,91.36
2022-11-25T08:05:45.381Z,91.58
2022-11-25T08:08:30.560Z,91.13
2022-11-25T08:11:22.476Z,90.43
2022-11-25T08:14:08.591Z,90.38
2022-11-25T08:16:54.332Z,90.28
2022-11-25T08:19:40.241Z,90.80
2022-11-25T08:22:25.578Z,90.17
2022-11-25T08:25:10.688Z,90.26
2022-11-25T08:27:55.903Z,90.62
2022-11-25T08:30:41.466Z,89.72
2022-11-25T08:33:26.787Z,90.37
2022-11-25T08:36:12.561Z,90.09
2022-11-25T08:38:59.958Z,89.86
2022-11-25T08:41:45.211Z,89.48
2022-11-25T08:44:30.714Z,89.41
2022-11-25T08:47:15.662Z,89.51
2022-11-25T08:50:01.368Z,89.11
2022-11-25T08:52:46.340Z,88.51
2022-11-25T08:55:32.665Z,88.72
2022-11-25T08:58:18.248Z,87.90
2022-11-25T09:01:04.784Z,87.81
2022-11-25T09:03:53.091Z,87.96
2022-11-25T09:06:38.869Z,87.75
2022-11-25T09:09:24.102Z,87.51
2022-11-25T09:12:09.768Z,86.35
2022-11-25T09:14:55.146Z,84.81
2022-11-25T09:17:40.492Z,85.87
2022-11-25T09:20:27.311Z,86.02
2022-11-25T09:23:13.078Z,86.64
2022-11-25T09:25:59.321Z,87.15
2022-11-25T09:28:44.712Z,87.09
2022-11-25T09:31:30.419Z,86.99
2022-11-25T09:34:15.536Z,86.77
2022-11-25T09:37:01.045Z,87.41
2022-11-25T09:39:46.141Z,87.74
2022-11-25T09:43:08.355Z,87.46
2022-11-25T09:46:18.376Z,87.05
2022-11-25T09:49:18.774Z,87.45
2022-11-25T09:52:04.363Z,87.47
2022-11-25T09:55:02.774Z,87.83
2022-11-25T09:58:03.333Z,87.33
2022-11-25T10:00:51.443Z,86.19
2022-11-25T10:03:43.221Z,85.16
2022-11-25T10:06:31.875Z,84.20
2022-11-25T10:09:23.833Z,84.03
2022-11-25T10:12:27.681Z,84.28
2022-11-25T10:15:21.066Z,84.01
2022-11-25T10:18:24.636Z,84.58
2022-11-25T10:21:11.587Z,84.83
2022-11-25T10:23:57.281Z,84.98
2022-11-25T10:26:45.279Z,84.82
2022-11-25T10:29:31.253Z,84.56
2022-11-25T10:32:24.436Z,84.04
2022-11-25T10:35:21.233Z,84.97
2022-11-25T10:38:19.030Z,85.58
2022-11-25T10:41:05.984Z,85.99
2022-11-25T10:43:51.599Z,85.64
2022-11-25T10:47:11.781Z,85.40
2022-11-25T10:50:19.771Z,85.34
2022-11-25T10:53:15.833Z,84.12
2022-11-25T10:56:04.559Z,80.25
2022-11-25T10:58:49.635Z,77.66
2022-11-25T11:01:35.356Z,75.92
2022-11-25T11:04:21.115Z,74.40
2022-11-25T11:07:09.390Z,75.04
2022-11-25T11:09:54.848Z,76.25
2022-11-25T11:12:59.031Z,78.13
2022-11-25T11:15:47.333Z,78.95
2022-11-25T11:18:38.837Z,80.38
2022-11-25T11:21:29.071Z,81.06
2022-11-25T11:24:35.712Z,81.75
2022-11-25T11:27:23.675Z,86.45
2022-11-25T11:30:15.586Z,82.72
2022-11-25T11:33:07.276Z,82.32
2022-11-25T11:36:09.897Z,81.24
2022-11-25T11:39:11.710Z,81.65
2022-11-25T11:42:14.006Z,81.54
2022-11-25T11:45:24.388Z,81.21
2022-11-25T11:48:13.265Z,81.76
2022-11-25T11:51:30.475Z,81.74
2022-11-25T11:54:23.969Z,81.66
2022-11-25T11:57:54.175Z,81.23
2022-11-25T12:00:58.015Z,80.32
2022-11-25T12:03:58.455Z,80.36
2022-11-25T12:06:53.792Z,80.22
2022-11-25T12:09:48.282Z,80.40
2022-11-25T12:13:01.990Z,80.57
2022-11-25T12:16:09.086Z,80.77
2022-11-25T12:19:21.016Z,81.48
2022-11-25T12:22:06.136Z,81.90
2022-11-25T12:25:13.935Z,82.31
2022-11-25T12:28:07.057Z,82.41
2022-11-25T12:31:05.309Z,82.40
2022-11-25T12:34:04.116Z,83.25
2022-11-25T12:36:49.725Z,83.34
2022-11-25T12:39:45.561Z,83.38
2022-11-25T12:42:33.512Z,84.20
2022-11-25T12:45:22.887Z,84.72
2022-11-25T12:48:11.799Z,84.86
2022-11-25T12:51:00.157Z,85.14
2022-11-25T12:54:17.642Z,85.69
2022-11-25T12:57:45.821Z,85.85
2022-11-25T13:01:07.118Z,86.16
2022-11-25T13:04:18.454Z,85.86
2022-11-25T13:07:33.296Z,86.02
2022-11-25T13:10:30.848Z,86.14
2022-11-25T13:13:55.188Z,86.24
2022-11-25T13:16:43.239Z,86.33
2022-11-25T13:19:29.153Z,85.96
2022-11-25T13:22:20.566Z,86.41
2022-11-25T13:25:24.497Z,86.73
2022-11-25T13:28:37.491Z,86.83
2022-11-25T13:31:24.260Z,86.62
2022-11-25T13:34:18.873Z,86.54
2022-11-25T13:37:43.322Z,86.75
2022-11-25T13:40:32.063Z,87.05
2022-11-25T13:43:22.496Z,87.66
2022-11-25T13:46:08.238Z,87.65
2022-11-25T13:48:53.696Z,87.47
2022-11-25T13:51:49.959Z,87.76
2022-11-25T13:54:43.497Z,88.27
2022-11-25T13:57:31.677Z,88.26
2022-11-25T14:00:20.091Z,88.53
2022-11-25T14:03:20.854Z,89.45
2022-11-25T14:06:32.539Z,89.83
2022-11-25T14:09:49.249Z,90.46
2022-11-25T14:13:16.578Z,91.18
2022-11-25T14:16:33.004Z,92.13
2022-11-25T14:19:50.687Z,91.95
2022-11-25T14:23:01.594Z,91.96
2022-11-25T14:25:53.574Z,92.23
2022-11-25T14:28:57.834Z,92.98
2022-11-25T14:31:47.168Z,93.16
2022-11-25T14:34:44.385Z,92.89
2022-11-25T14:37:46.266Z,92.97
2022-11-25T14:40:57.096Z,92.90
2022-11-25T14:43:48.819Z,92.59
2022-11-25T14:46:35.091Z,93.04
2022-11-25T14:52:36.471Z,93.34
2022-11-25T14:55:31.327Z,93.44
2022-11-25T14:58:17.530Z,93.32
2022-11-25T15:01:08.671Z,93.87
2022-11-25T15:04:04.871Z,93.73
2022-11-25T15:07:01.175Z,94.41
2022-11-25T15:10:03.393Z,94.50
2022-11-25T15:14:05.262Z,94.60
2022-11-25T15:16:57.896Z,95.17
2022-11-25T15:19:47.829Z,95.60
2022-11-25T15:22:34.018Z,95.60
2022-11-25T15:25:20.611Z,96.30
2022-11-25T15:28:21.371Z,96.43
2022-11-25T15:31:12.913Z,96.26
2022-11-25T15:34:07.722Z,95.64
2022-11-25T15:41:15.489Z,95.47
2022-11-25T15:44:04.105Z,95.32
2022-11-25T15:46:57.701Z,95.45
2022-11-25T15:49:49.212Z,95.77
2022-11-25T15:52:41.033Z,95.53
2022-11-25T15:55:39.818Z,95.53
2022-11-25T15:58:26.241Z,95.93
2022-11-25T16:01:18.156Z,95.81
2022-11-25T16:04:19.270Z,95.72
2022-11-25T16:07:23.570Z,95.39
2022-11-25T16:10:24.284Z,95.22
2022-11-25T16:13:23.041Z,94.83
2022-11-25T16:16:13.102Z,94.63
2022-11-25T16:19:01.962Z,94.70
2022-11-25T16:21:53.051Z,94.12
2022-11-25T16:24:50.674Z,93.82
2022-11-25T16:27:38.196Z,93.68
2022-11-25T16:30:23.785Z,93.52
2022-11-25T16:33:12.280Z,93.14
2022-11-25T16:35:57.471Z,93.07
2022-11-25T16:38:43.325Z,93.22
2022-11-25T16:41:29.882Z,93.13
2022-11-25T16:44:21.695Z,92.86
2022-11-25T16:47:10.654Z,92.75
2022-11-25T16:49:56.508Z,92.43
2022-11-25T16:52:42.456Z,92.65
2022-11-25T16:55:28.129Z,92.44
2022-11-25T16:58:24.248Z,92.31
2022-11-25T17:01:15.097Z,92.36
2022-11-25T17:04:00.903Z,92.14
2022-11-25T17:07:09.557Z,91.33
2022-11-25T17:09:51.937Z,90.70
2022-11-25T17:12:39.363Z,90.25
2022-11-25T17:15:32.332Z,89.79
2022-11-25T17:18:18.425Z,89.86
2022-11-25T17:21:04.003Z,90.07
2022-11-25T17:23:52.511Z,90.25
2022-11-25T17:26:42.816Z,90.65
2022-11-25T17:29:39.850Z,90.56
2022-11-25T17:32:26.411Z,90.17
2022-11-25T17:35:20.008Z,90.59
2022-11-25T17:38:13.071Z,90.53
2022-11-25T17:40:58.193Z,90.66
2022-11-25T17:43:44.747Z,90.59
2022-11-25T17:46:29.978Z,90.55
2022-11-25T17:49:15.606Z,90.53
2022-11-25T17:52:01.118Z,90.76
2022-11-25T17:54:46.503Z,91.03
2022-11-25T17:57:31.772Z,91.67
2022-11-25T18:00:20.386Z,91.92
2022-11-25T18:03:11.946Z,92.23
2022-11-25T18:05:57.615Z,92.11
2022-11-25T18:08:43.165Z,92.73
2022-11-25T18:11:28.401Z,92.54
2022-11-25T18:14:24.993Z,92.67
2022-11-25T18:17:16.544Z,92.61
2022-11-25T18:20:19.578Z,92.84
2022-11-25T18:23:04.717Z,92.71
2022-11-25T18:25:51.450Z,93.87
2022-11-25T18:28:37.578Z,93.82
2022-11-25T18:31:23.628Z,93.71
2022-11-25T18:34:16.154Z,94.71
2022-11-25T18:37:03.084Z,94.97
2022-11-25T18:39:48.169Z,94.52
2022-11-25T18:42:33.609Z,95.05
2022-11-25T18:45:36.576Z,94.72
2022-11-25T18:48:24.299Z,94.53
2022-11-25T18:51:12.095Z,94.86
2022-11-25T18:53:57.439Z,94.75
2022-11-25T18:56:43.527Z,94.53
2022-11-25T18:59:36.039Z,95.11
2022-11-25T19:02:21.395Z,95.90
2022-11-25T19:05:19.038Z,95.69
2022-11-25T19:08:04.673Z,95.76
2022-11-25T19:10:51.050Z,95.86
2022-11-25T19:13:37.029Z,95.59
2022-11-25T19:16:23.315Z,96.01
2022-11-25T19:19:14.175Z,96.22
2022-11-25T19:22:01.311Z,96.76
2022-11-25T19:24:46.881Z,96.89
2022-11-25T19:27:35.670Z,97.23
2022-11-25T19:30:24.370Z,97.25
2022-11-25T19:33:43.623Z,97.19
2022-11-25T19:36:32.012Z,96.41
2022-11-25T19:39:20.876Z,97.13
2022-11-25T19:42:06.401Z,97.52
2022-11-25T19:44:52.864Z,96.60
2022-11-25T19:47:38.140Z,97.31
2022-11-25T19:50:26.199Z,97.38
2022-11-25T19:53:22.179Z,97.36
2022-11-25T19:56:15.865Z,97.02
2022-11-25T19:59:01.074Z,97.23
2022-11-25T20:01:46.859Z,97.25
2022-11-25T20:04:31.786Z,97.19
2022-11-25T20:07:20.309Z,97.21
2022-11-25T20:10:19.841Z,97.32
2022-11-25T20:13:06.529Z,97.32
2022-11-25T20:15:53.521Z,97.59
2022-11-25T20:18:39.357Z,97.90
2022-11-25T20:21:32.584Z,97.52
2022-11-25T20:24:19.741Z,97.65
2022-11-25T20:27:04.612Z,97.98
2022-11-25T20:29:49.929Z,98.15
2022-11-25T20:32:35.456Z,98.01
2022-11-25T20:35:22.485Z,98.52
2022-11-25T20:38:16.625Z,98.07
2022-11-25T20:41:02.319Z,97.94
2022-11-25T20:43:49.532Z,98.71
2022-11-25T20:46:34.679Z,98.81
2022-11-25T20:49:23.659Z,98.70
2022-11-25T20:52:18.940Z,98.61
2022-11-25T20:55:14.715Z,98.51
2022-11-25T20:57:59.913Z,98.33
2022-11-25T21:00:45.283Z,98.74
2022-11-25T21:03:30.380Z,98.91
2022-11-25T21:06:27.437Z,98.92
2022-11-25T21:09:23.327Z,98.68
2022-11-25T21:12:18.930Z,98.02
2022-11-25T21:15:13.355Z,97.61
2022-11-25T21:17:59.571Z,97.98
2022-11-25T21:20:45.095Z,98.71
2022-11-25T21:23:36.346Z,98.20
2022-11-25T21:26:25.483Z,98.43
2022-11-25T21:29:15.473Z,98.67
2022-11-25T21:32:00.590Z,98.96
2022-11-25T21:34:46.152Z,98.89
2022-11-25T21:37:38.121Z,98.38
2022-11-25T21:40:42.449Z,98.56
2022-11-25T21:43:32.387Z,99.48
2022-11-25T21:46:20.379Z,99.48
2022-11-25T21:49:11.538Z,99.17
2022-11-25T21:51:56.702Z,99.13
2022-11-25T21:54:42.226Z,99.63
2022-11-25T21:57:29.200Z,99.96
2022-11-25T22:00:32.507Z,99.27
2022-11-25T22:03:19.604Z,98.31
2022-11-25T22:06:16.247Z,98.16
2022-11-25T22:09:01.478Z,98.72
2022-11-25T22:11:50.177Z,98.94
2022-11-25T22:14:37.252Z,98.75
2022-11-25T22:17:23.014Z,98.87
2022-11-25T22:20:30.861Z,99.00
2022-11-25T22:23:19.389Z,99.31
2022-11-25T22:26:05.326Z,99.63
2022-11-25T22:28:51.946Z,100.00
2022-11-25T22:31:37.424Z,99.61
2022-11-25T22:34:24.367Z,100.00
2022-11-25T22:37:18.080Z,100.00
2022-11-25T22:40:03.206Z,100.00
2022-11-25T22:42:51.108Z,100.00
2022-11-25T22:45:36.674Z,100.00
2022-11-25T22:48:29.962Z,100.00
2022-11-25T22:51:19.959Z,100.00
2022-11-25T22:54:11.374Z,100.00
2022-11-25T22:56:57.162Z,100.00
2022-11-25T22:59:43.259Z,100.00
2022-11-25T23:02:34.150Z,100.00
2022-11-25T23:05:32.200Z,100.00
2022-11-25T23:08:23.955Z,100.00
2022-11-25T23:11:17.395Z,100.00
2022-11-25T23:14:03.075Z,100.00
2022-11-25T23:16:48.565Z,100.00
2022-11-25T23:19:33.945Z,100.00
2022-11-25T23:22:19.677Z,100.00
2022-11-25T23:25:11.697Z,100.00
2022-11-25T23:27:56.986Z,100.00
2022-11-25T23:31:02.967Z,100.00
2022-11-25T23:33:50.046Z,100.00
2022-11-25T23:36:48.178Z,100.00
2022-11-25T23:39:36.604Z,100.00
2022-11-25T23:42:21.548Z,100.00
2022-11-25T23:45:09.633Z,100.00
2022-11-25T23:47:56.824Z,100.00
2022-11-25T23:50:42.294Z,100.00
2022-11-25T23:53:33.117Z,100.00
2022-11-25T23:56:19.032Z,100.00
2022-11-25T23:59:11.946Z,100.00
